Time;durP1;ratioP1;P1;durP2;ratioP2;P2;SDS_P1;SDS_P2;PMS_P1;PMS_P2;Temp;Humidity;BMP_temperature;BMP_pressure;BME280_temperature;BME280_humidity;BME280_pressure;Samples;Min_cycle;Max_cycle;Signal;HPM_P1;HPM_P2
2021/07/20 00:00:05;;;;;;;9.37;8.57;;;;;;;;;;5104282;28;24947;-53
2021/07/20 00:02:32;;;;;;;9.85;8.85;;;;;;;;;;5089258;27;24410;-53
2021/07/20 00:04:57;;;;;;;9.10;8.30;;;;;;;;;;5078292;28;24407;-53
2021/07/20 00:07:22;;;;;;;10.10;9.20;;;;;;;;;;5096956;28;24446;-53
2021/07/20 00:09:48;;;;;;;9.40;8.57;;;;;;;;;;5096150;28;24777;-53
2021/07/20 00:12:13;;;;;;;9.45;8.55;;;;;;;;;;5101136;28;24444;-53
2021/07/20 00:14:38;;;;;;;10.00;9.10;;;;;;;;;;5090301;28;24418;-54
2021/07/20 00:17:03;;;;;;;8.63;7.83;;;;;;;;;;5087011;28;25266;-54
2021/07/20 00:19:28;;;;;;;8.77;8.07;;;;;;;;;;5090851;28;24433;-54
2021/07/20 00:21:54;;;;;;;8.80;7.90;;;;;;;;;;5083359;28;25023;-55
2021/07/20 00:24:19;;;;;;;8.90;8.10;;;;;;;;;;5089070;28;24971;-54
2021/07/20 00:26:45;;;;;;;8.90;8.20;;;;;;;;;;5093834;28;24944;-54
2021/07/20 00:29:10;;;;;;;10.80;9.90;;;;;;;;;;5089414;28;24565;-54
2021/07/20 00:31:35;;;;;;;10.70;9.60;;;;;;;;;;5081907;28;24513;-54
2021/07/20 00:34:00;;;;;;;10.68;9.77;;;;;;;;;;5090648;28;24426;-54
2021/07/20 00:36:26;;;;;;;9.50;8.70;;;;;;;;;;5075963;28;24982;-54
2021/07/20 00:38:51;;;;;;;10.17;9.27;;;;;;;;;;5092055;27;24487;-54
2021/07/20 00:41:16;;;;;;;10.27;9.38;;;;;;;;;;5079300;28;25085;-54
2021/07/20 00:43:41;;;;;;;10.35;9.45;;;;;;;;;;5098194;28;24472;-54
2021/07/20 00:46:06;;;;;;;9.63;8.70;;;;;;;;;;5068721;28;24398;-54
2021/07/20 00:48:32;;;;;;;9.67;8.87;;;;;;;;;;5075622;28;24736;-54
2021/07/20 00:50:57;;;;;;;8.87;8.07;;;;;;;;;;5088116;28;24508;-54
2021/07/20 00:53:22;;;;;;;8.70;7.90;;;;;;;;;;5070827;28;25297;-54
2021/07/20 00:55:47;;;;;;;9.00;8.20;;;;;;;;;;5084433;28;25290;-54
2021/07/20 00:58:13;;;;;;;7.90;7.20;;;;;;;;;;5092157;28;24974;-54
2021/07/20 01:00:38;;;;;;;9.00;8.10;;;;;;;;;;5079571;28;25020;-54
2021/07/20 01:03:04;;;;;;;8.60;7.80;;;;;;;;;;5075192;28;24498;-54
2021/07/20 01:05:29;;;;;;;8.80;8.10;;;;;;;;;;5086941;28;24498;-54
2021/07/20 01:07:55;;;;;;;9.13;8.23;;;;;;;;;;5103729;28;24854;-54
2021/07/20 01:10:21;;;;;;;8.50;7.80;;;;;;;;;;5093054;28;24414;-54
2021/07/20 01:12:47;;;;;;;8.40;7.65;;;;;;;;;;5094940;28;24426;-54
2021/07/20 01:15:13;;;;;;;8.02;7.32;;;;;;;;;;5078510;28;24492;-54
2021/07/20 01:17:40;;;;;;;8.40;7.70;;;;;;;;;;5075056;28;24560;-54
2021/07/20 01:20:11;;;;;;;8.35;7.65;;;;;;;;;;5084683;28;25024;-53
2021/07/20 01:22:39;;;;;;;8.23;7.43;;;;;;;;;;5090009;28;24432;-53
2021/07/20 01:25:09;;;;;;;8.40;7.60;;;;;;;;;;5072057;28;24419;-53
2021/07/20 01:27:35;;;;;;;8.50;7.60;;;;;;;;;;5098596;28;25178;-53
2021/07/20 01:30:01;;;;;;;8.40;7.70;;;;;;;;;;5082588;28;24457;-53
2021/07/20 01:32:26;;;;;;;7.70;7.00;;;;;;;;;;5101448;28;24466;-53
2021/07/20 01:34:52;;;;;;;7.57;6.83;;;;;;;;;;5095149;28;24472;-53
2021/07/20 01:37:18;;;;;;;8.20;7.50;;;;;;;;;;5090972;28;24468;-53
2021/07/20 01:39:44;;;;;;;8.48;7.68;;;;;;;;;;5086057;28;24994;-53
2021/07/20 01:42:09;;;;;;;8.00;7.30;;;;;;;;;;5091207;28;24422;-53
2021/07/20 01:44:34;;;;;;;9.37;8.47;;;;;;;;;;5095717;28;24411;-53
2021/07/20 01:47:00;;;;;;;9.10;7.70;;;;;;;;;;5078130;28;24426;-53
2021/07/20 01:49:27;;;;;;;8.60;7.80;;;;;;;;;;5080350;28;24469;-52
2021/07/20 01:51:52;;;;;;;7.60;7.00;;;;;;;;;;5093074;28;24456;-53
2021/07/20 01:54:18;;;;;;;7.80;7.10;;;;;;;;;;5094137;28;24449;-53
2021/07/20 01:56:44;;;;;;;8.10;7.30;;;;;;;;;;5076622;28;24555;-53
2021/07/20 01:59:10;;;;;;;8.80;8.00;;;;;;;;;;5077767;28;24427;-53
2021/07/20 02:01:43;;;;;;;9.20;8.40;;;;;;;;;;5092553;28;24776;-53
2021/07/20 02:09:22;;;;;;;7.80;7.20;;;;;;;;;;5070803;28;24564;-53
2021/07/20 02:11:47;;;;;;;9.37;8.50;;;;;;;;;;5091776;28;25121;-54
2021/07/20 02:14:14;;;;;;;8.23;7.53;;;;;;;;;;5088300;28;24971;-54
2021/07/20 02:16:41;;;;;;;9.00;8.20;;;;;;;;;;5078539;28;24409;-54
2021/07/20 02:19:15;;;;;;;8.50;7.80;;;;;;;;;;5067747;28;24451;-54
2021/07/20 02:21:52;;;;;;;8.77;8.07;;;;;;;;;;5069764;28;24952;-55
2021/07/20 02:24:18;;;;;;;8.32;7.53;;;;;;;;;;5084574;28;24422;-54
2021/07/20 02:26:45;;;;;;;9.43;8.63;;;;;;;;;;5087787;28;24442;-54
2021/07/20 02:29:11;;;;;;;9.30;8.40;;;;;;;;;;5073709;28;24420;-54
2021/07/20 02:31:36;;;;;;;8.80;8.00;;;;;;;;;;5073000;28;24445;-54
2021/07/20 02:34:02;;;;;;;9.05;8.27;;;;;;;;;;5096267;28;24414;-54
2021/07/20 02:36:28;;;;;;;8.20;7.50;;;;;;;;;;5079911;28;24437;-54
2021/07/20 02:38:54;;;;;;;8.23;7.53;;;;;;;;;;5081940;28;25308;-54
2021/07/20 02:41:20;;;;;;;7.60;6.90;;;;;;;;;;5095068;28;24420;-53
2021/07/20 02:43:46;;;;;;;8.30;7.60;;;;;;;;;;5104661;28;24441;-54
2021/07/20 02:46:12;;;;;;;8.30;7.60;;;;;;;;;;5089906;28;24522;-54
2021/07/20 02:48:40;;;;;;;8.93;8.13;;;;;;;;;;5080037;28;24861;-54
2021/07/20 02:51:08;;;;;;;7.57;6.88;;;;;;;;;;5081682;28;24424;-54
2021/07/20 02:53:34;;;;;;;7.70;7.10;;;;;;;;;;5097773;28;24851;-54
2021/07/20 02:56:00;;;;;;;8.02;7.32;;;;;;;;;;5099930;28;24414;-54
2021/07/20 02:58:25;;;;;;;8.17;7.47;;;;;;;;;;5085016;28;24974;-53
2021/07/20 03:00:50;;;;;;;7.80;7.10;;;;;;;;;;5078568;28;24414;-53
2021/07/20 03:03:16;;;;;;;8.30;7.50;;;;;;;;;;5074963;28;24417;-54
2021/07/20 03:05:41;;;;;;;8.97;8.07;;;;;;;;;;5066881;28;24521;-54
2021/07/20 03:08:08;;;;;;;8.60;7.80;;;;;;;;;;5080174;28;24463;-53
2021/07/20 03:10:34;;;;;;;8.35;7.57;;;;;;;;;;5094526;28;24432;-53
2021/07/20 03:13:02;;;;;;;7.13;6.53;;;;;;;;;;5096231;27;24414;-53
2021/07/20 03:15:28;;;;;;;7.80;7.10;;;;;;;;;;5102125;28;24448;-53
2021/07/20 03:17:54;;;;;;;8.30;7.60;;;;;;;;;;5081289;28;24465;-53
2021/07/20 03:20:20;;;;;;;7.70;7.00;;;;;;;;;;5083270;28;24510;-53
2021/07/20 03:22:46;;;;;;;8.70;7.90;;;;;;;;;;5080607;28;24406;-53
2021/07/20 03:25:12;;;;;;;7.93;7.22;;;;;;;;;;5085814;28;24502;-53
2021/07/20 03:27:38;;;;;;;8.20;7.50;;;;;;;;;;5098231;28;24446;-53
2021/07/20 03:30:05;;;;;;;9.30;8.50;;;;;;;;;;5080879;28;24457;-53
2021/07/20 03:32:30;;;;;;;7.95;7.20;;;;;;;;;;5099430;28;24455;-53
2021/07/20 03:34:55;;;;;;;7.88;7.28;;;;;;;;;;5073969;28;24513;-53
2021/07/20 03:37:22;;;;;;;8.67;7.87;;;;;;;;;;5097391;28;24439;-53
2021/07/20 03:39:48;;;;;;;8.57;7.78;;;;;;;;;;5080422;28;24897;-54
2021/07/20 03:42:13;;;;;;;9.35;8.45;;;;;;;;;;5090608;28;24972;-53
2021/07/20 03:44:39;;;;;;;8.17;7.47;;;;;;;;;;5088290;28;24463;-54
2021/07/20 03:47:05;;;;;;;7.90;7.30;;;;;;;;;;5075502;28;24471;-53
2021/07/20 03:49:31;;;;;;;7.50;6.90;;;;;;;;;;5089668;28;24854;-53
2021/07/20 03:51:58;;;;;;;8.50;7.80;;;;;;;;;;5092326;27;24464;-53
2021/07/20 03:54:23;;;;;;;8.20;7.50;;;;;;;;;;5096472;28;24504;-54
2021/07/20 03:56:50;;;;;;;8.20;7.40;;;;;;;;;;5089170;28;24510;-53
2021/07/20 03:59:15;;;;;;;9.55;8.75;;;;;;;;;;5067112;28;24437;-53
2021/07/20 04:01:41;;;;;;;7.85;7.25;;;;;;;;;;5084776;28;24421;-53
2021/07/20 04:04:08;;;;;;;8.10;7.40;;;;;;;;;;5087224;28;24528;-53
2021/07/20 04:06:34;;;;;;;8.15;7.45;;;;;;;;;;5091364;28;24402;-53
2021/07/20 04:08:59;;;;;;;7.57;6.97;;;;;;;;;;5074736;28;25073;-53
2021/07/20 04:11:25;;;;;;;8.07;7.27;;;;;;;;;;5082977;28;24890;-53
2021/07/20 04:13:50;;;;;;;8.43;7.63;;;;;;;;;;5088377;28;24780;-53
2021/07/20 04:16:16;;;;;;;7.90;7.30;;;;;;;;;;5097248;28;24963;-53
2021/07/20 04:18:41;;;;;;;8.87;8.07;;;;;;;;;;5092833;28;24494;-53
2021/07/20 04:21:07;;;;;;;7.70;7.10;;;;;;;;;;5092093;28;25014;-53
2021/07/20 04:23:35;;;;;;;7.43;6.83;;;;;;;;;;5089321;28;24436;-53
2021/07/20 04:26:01;;;;;;;8.80;7.80;;;;;;;;;;5089742;28;24426;-54
2021/07/20 04:28:27;;;;;;;7.97;7.28;;;;;;;;;;5100101;28;24429;-53
2021/07/20 04:30:53;;;;;;;8.70;7.80;;;;;;;;;;5083195;28;24441;-54
2021/07/20 04:33:25;;;;;;;7.90;7.20;;;;;;;;;;5080655;28;25017;-53
2021/07/20 04:35:50;;;;;;;7.50;6.80;;;;;;;;;;5083292;28;24443;-53
2021/07/20 04:38:16;;;;;;;8.40;7.60;;;;;;;;;;5073904;28;24823;-53
2021/07/20 04:40:42;;;;;;;8.07;7.38;;;;;;;;;;5072646;28;25051;-53
2021/07/20 04:43:07;;;;;;;9.57;8.68;;;;;;;;;;5096466;27;24805;-54
2021/07/20 04:45:33;;;;;;;9.23;8.40;;;;;;;;;;5091726;28;24493;-54
2021/07/20 04:47:58;;;;;;;7.60;6.90;;;;;;;;;;5088321;28;24479;-54
2021/07/20 04:50:24;;;;;;;8.80;8.10;;;;;;;;;;5102424;28;24479;-53
2021/07/20 04:52:49;;;;;;;8.70;7.97;;;;;;;;;;5092711;28;25290;-53
2021/07/20 04:55:15;;;;;;;8.77;8.07;;;;;;;;;;5088620;28;25012;-54
2021/07/20 04:57:40;;;;;;;9.30;8.40;;;;;;;;;;5091588;28;24915;-54
2021/07/20 05:00:09;;;;;;;9.50;8.70;;;;;;;;;;5089306;28;24430;-54
2021/07/20 05:02:36;;;;;;;8.35;7.65;;;;;;;;;;5098742;28;24418;-54
2021/07/20 05:05:01;;;;;;;8.40;7.70;;;;;;;;;;5078703;28;24403;-53
2021/07/20 05:07:27;;;;;;;8.00;7.30;;;;;;;;;;5072737;28;24425;-54
2021/07/20 05:09:52;;;;;;;9.00;8.10;;;;;;;;;;5080447;28;24453;-54
2021/07/20 05:12:18;;;;;;;8.67;7.80;;;;;;;;;;5085079;28;24532;-54
2021/07/20 05:14:43;;;;;;;9.77;8.88;;;;;;;;;;5088813;28;24418;-54
2021/07/20 05:17:10;;;;;;;8.60;7.90;;;;;;;;;;5098790;28;24418;-54
2021/07/20 05:19:36;;;;;;;8.30;7.50;;;;;;;;;;5095857;28;24793;-54
2021/07/20 05:22:03;;;;;;;9.32;8.43;;;;;;;;;;5089909;28;24409;-54
2021/07/20 05:24:28;;;;;;;9.30;8.50;;;;;;;;;;5090542;28;24451;-53
2021/07/20 05:26:54;;;;;;;8.10;7.40;;;;;;;;;;5109382;27;24467;-53
2021/07/20 05:29:20;;;;;;;8.20;7.50;;;;;;;;;;5108259;28;24764;-53
2021/07/20 05:31:45;;;;;;;8.40;7.60;;;;;;;;;;5078127;28;24498;-54
2021/07/20 05:34:13;;;;;;;8.43;7.72;;;;;;;;;;5067993;28;24410;-54
2021/07/20 05:36:38;;;;;;;7.88;7.18;;;;;;;;;;5068347;28;24442;-54
2021/07/20 05:39:03;;;;;;;8.50;7.80;;;;;;;;;;5068280;28;24449;-53
2021/07/20 05:41:29;;;;;;;9.07;8.27;;;;;;;;;;5076309;28;24898;-54
2021/07/20 05:43:55;;;;;;;8.20;7.60;;;;;;;;;;5088239;28;24464;-54
2021/07/20 05:46:20;;;;;;;7.90;7.20;;;;;;;;;;5087728;28;24402;-55
2021/07/20 05:48:46;;;;;;;7.80;7.20;;;;;;;;;;5088139;28;24397;-55
2021/07/20 05:51:12;;;;;;;8.13;7.33;;;;;;;;;;5086049;28;24907;-54
2021/07/20 05:53:38;;;;;;;8.35;7.60;;;;;;;;;;5092656;28;24435;-55
2021/07/20 05:56:03;;;;;;;8.47;7.57;;;;;;;;;;5098743;28;24962;-55
2021/07/20 05:58:29;;;;;;;7.80;7.10;;;;;;;;;;5087375;28;24852;-54
2021/07/20 06:00:57;;;;;;;7.63;6.93;;;;;;;;;;5092023;28;24410;-54
2021/07/20 06:03:23;;;;;;;8.73;7.97;;;;;;;;;;5085419;28;24417;-54
2021/07/20 06:05:49;;;;;;;8.20;7.40;;;;;;;;;;5087657;28;24402;-54
2021/07/20 06:08:15;;;;;;;8.60;7.80;;;;;;;;;;5087717;28;24393;-54
2021/07/20 06:10:40;;;;;;;8.57;7.88;;;;;;;;;;5087397;28;24390;-56
2021/07/20 06:13:06;;;;;;;8.40;7.70;;;;;;;;;;5085701;28;24415;-55
2021/07/20 06:15:31;;;;;;;7.43;6.82;;;;;;;;;;5087381;28;24817;-54
2021/07/20 06:17:58;;;;;;;7.80;7.20;;;;;;;;;;5084977;28;24881;-54
2021/07/20 06:20:23;;;;;;;7.10;6.60;;;;;;;;;;5096182;28;24464;-54
2021/07/20 06:22:51;;;;;;;7.38;6.78;;;;;;;;;;5099259;28;24438;-54
2021/07/20 06:25:17;;;;;;;8.65;7.95;;;;;;;;;;5087778;28;24568;-54
2021/07/20 06:27:43;;;;;;;8.90;8.15;;;;;;;;;;5089012;28;25225;-55
2021/07/20 06:30:08;;;;;;;8.60;7.90;;;;;;;;;;5092118;28;24425;-55
2021/07/20 06:32:35;;;;;;;8.52;7.82;;;;;;;;;;5093346;28;24764;-55
2021/07/20 06:35:00;;;;;;;8.13;7.43;;;;;;;;;;5072102;28;24510;-55
2021/07/20 06:37:25;;;;;;;9.83;8.93;;;;;;;;;;5094928;28;25081;-54
2021/07/20 06:39:51;;;;;;;8.73;8.00;;;;;;;;;;5088821;28;24432;-54
2021/07/20 06:42:17;;;;;;;7.90;7.30;;;;;;;;;;5088545;28;24421;-55
2021/07/20 06:44:43;;;;;;;8.43;7.73;;;;;;;;;;5085335;28;24410;-54
2021/07/20 06:47:12;;;;;;;7.70;7.10;;;;;;;;;;5087331;28;24998;-54
2021/07/20 06:49:37;;;;;;;8.18;7.57;;;;;;;;;;5098234;28;24470;-54
2021/07/20 06:52:05;;;;;;;7.70;7.00;;;;;;;;;;5101829;28;24534;-55
2021/07/20 06:54:31;;;;;;;8.65;7.88;;;;;;;;;;5093328;28;24516;-55
2021/07/20 06:56:57;;;;;;;8.33;7.63;;;;;;;;;;5087375;28;24501;-54
2021/07/20 06:59:24;;;;;;;7.20;6.60;;;;;;;;;;5091718;28;24495;-55
2021/07/20 07:01:49;;;;;;;7.47;6.88;;;;;;;;;;5093337;28;24487;-55
2021/07/20 07:04:14;;;;;;;8.13;7.43;;;;;;;;;;5096362;28;24993;-55
2021/07/20 07:06:41;;;;;;;8.27;7.47;;;;;;;;;;5088594;28;24413;-55
2021/07/20 07:09:07;;;;;;;6.63;6.13;;;;;;;;;;5087187;28;24824;-54
2021/07/20 07:11:32;;;;;;;7.23;6.60;;;;;;;;;;5090717;28;24516;-53
2021/07/20 07:13:59;;;;;;;6.30;5.70;;;;;;;;;;5084672;28;24487;-54
2021/07/20 07:16:25;;;;;;;7.30;6.65;;;;;;;;;;5078831;28;24418;-54
2021/07/20 07:18:51;;;;;;;7.63;7.03;;;;;;;;;;5066657;28;24980;-54
2021/07/20 07:21:16;;;;;;;7.00;6.40;;;;;;;;;;5066821;28;24984;-54
2021/07/20 07:23:43;;;;;;;6.72;6.13;;;;;;;;;;5066713;28;24399;-54
2021/07/20 07:26:10;;;;;;;6.93;6.32;;;;;;;;;;5067067;28;24387;-54
2021/07/20 07:28:36;;;;;;;7.18;6.57;;;;;;;;;;5086584;28;24402;-55
2021/07/20 07:31:01;;;;;;;7.10;6.40;;;;;;;;;;5087018;28;24473;-54
2021/07/20 07:33:26;;;;;;;6.70;6.20;;;;;;;;;;5087085;28;24920;-54
2021/07/20 07:35:52;;;;;;;6.70;6.10;;;;;;;;;;5086908;28;24444;-54
2021/07/20 07:38:18;;;;;;;6.70;6.20;;;;;;;;;;5084528;28;24414;-54
2021/07/20 07:40:48;;;;;;;7.10;6.50;;;;;;;;;;5086803;28;24479;-54
2021/07/20 07:43:13;;;;;;;7.43;6.72;;;;;;;;;;5086783;28;24405;-54
2021/07/20 07:45:38;;;;;;;6.20;5.70;;;;;;;;;;5086809;28;24481;-54
2021/07/20 07:48:04;;;;;;;6.80;6.10;;;;;;;;;;5085274;28;24409;-55
2021/07/20 07:50:29;;;;;;;6.10;5.60;;;;;;;;;;5086606;28;24428;-55
2021/07/20 07:52:55;;;;;;;6.63;5.30;;;;;;;;;;5086619;28;24406;-55
2021/07/20 07:55:22;;;;;;;5.63;5.03;;;;;;;;;;5086177;28;24394;-54
2021/07/20 07:57:48;;;;;;;6.30;5.70;;;;;;;;;;5087791;28;24477;-54
2021/07/20 08:00:13;;;;;;;5.53;5.03;;;;;;;;;;5090124;28;24505;-55
2021/07/20 08:02:39;;;;;;;5.20;4.80;;;;;;;;;;5090318;28;24819;-54
2021/07/20 08:05:05;;;;;;;6.00;5.50;;;;;;;;;;5090208;28;24394;-55
2021/07/20 08:07:31;;;;;;;5.60;5.10;;;;;;;;;;5089709;28;24960;-55
2021/07/20 08:09:57;;;;;;;6.10;5.50;;;;;;;;;;5087878;28;24555;-55
2021/07/20 08:12:23;;;;;;;5.13;4.60;;;;;;;;;;5089854;28;24497;-56
2021/07/20 08:14:48;;;;;;;5.47;5.07;;;;;;;;;;5090234;28;24420;-55
2021/07/20 08:17:14;;;;;;;5.50;5.10;;;;;;;;;;5089496;28;24390;-55
2021/07/20 08:19:40;;;;;;;6.60;5.60;;;;;;;;;;5088151;28;24956;-55
2021/07/20 08:22:14;;;;;;;5.50;5.00;;;;;;;;;;5090029;28;24518;-55
2021/07/20 08:24:45;;;;;;;5.50;5.00;;;;;;;;;;5089642;28;24554;-55
2021/07/20 08:27:17;;;;;;;5.28;4.88;;;;;;;;;;5089845;28;24417;-55
2021/07/20 08:29:44;;;;;;;4.82;4.43;;;;;;;;;;5088298;28;24510;-55
2021/07/20 08:32:11;;;;;;;4.80;4.40;;;;;;;;;;5089634;28;24927;-55
2021/07/20 08:34:45;;;;;;;4.20;3.90;;;;;;;;;;5089362;28;24394;-55
2021/07/20 08:37:11;;;;;;;4.63;4.32;;;;;;;;;;5089569;28;24920;-55
2021/07/20 08:39:38;;;;;;;4.50;4.10;;;;;;;;;;5089649;28;24421;-56
2021/07/20 08:42:12;;;;;;;3.80;3.50;;;;;;;;;;5087738;28;24421;-56
2021/07/20 08:44:37;;;;;;;4.85;4.45;;;;;;;;;;5089309;28;24501;-55
2021/07/20 08:47:02;;;;;;;4.72;4.13;;;;;;;;;;5089770;28;25029;-55
2021/07/20 08:49:35;;;;;;;4.60;4.20;;;;;;;;;;5089420;28;24505;-55
2021/07/20 08:52:03;;;;;;;4.38;3.97;;;;;;;;;;5087664;28;25023;-54
2021/07/20 08:54:47;;;;;;;4.28;3.75;;;;;;;;;;5089134;28;24418;-55
2021/07/20 08:57:13;;;;;;;4.35;4.05;;;;;;;;;;5089391;28;24494;-55
2021/07/20 08:59:48;;;;;;;4.10;3.80;;;;;;;;;;5088768;28;24483;-55
2021/07/20 09:02:24;;;;;;;5.40;4.30;;;;;;;;;;5087068;28;24491;-55
2021/07/20 09:05:01;;;;;;;4.43;4.00;;;;;;;;;;5089353;28;24428;-56
2021/07/20 09:07:30;;;;;;;4.72;4.32;;;;;;;;;;5088903;28;24378;-55
2021/07/20 09:09:55;;;;;;;4.95;4.55;;;;;;;;;;5088857;28;24399;-55
2021/07/20 09:12:27;;;;;;;4.40;4.00;;;;;;;;;;5087841;28;24445;-56
2021/07/20 09:15:03;;;;;;;4.60;4.20;;;;;;;;;;5091228;28;24397;-55
2021/07/20 09:17:41;;;;;;;4.47;4.03;;;;;;;;;;5089485;28;25004;-54
2021/07/20 09:20:09;;;;;;;4.13;3.83;;;;;;;;;;5088747;28;24467;-55
2021/07/20 09:22:39;;;;;;;4.30;4.00;;;;;;;;;;5086568;28;24510;-55
2021/07/20 09:25:12;;;;;;;3.90;3.60;;;;;;;;;;5087960;28;24414;-55
2021/07/20 09:27:39;;;;;;;3.95;3.65;;;;;;;;;;5088168;28;24480;-55
2021/07/20 09:30:07;;;;;;;4.60;4.30;;;;;;;;;;5088511;28;24410;-56
2021/07/20 09:32:52;;;;;;;4.00;3.70;;;;;;;;;;5088373;28;24397;-55
2021/07/20 09:35:20;;;;;;;4.53;4.10;;;;;;;;;;5068191;28;24433;-56
2021/07/20 09:37:52;;;;;;;4.60;4.20;;;;;;;;;;5068291;28;24762;-55
2021/07/20 09:40:26;;;;;;;4.63;4.22;;;;;;;;;;5067715;28;24537;-55
2021/07/20 09:43:02;;;;;;;3.88;3.47;;;;;;;;;;5067857;28;24387;-56
2021/07/20 09:45:48;;;;;;;3.88;3.50;;;;;;;;;;5069330;28;24423;-55
2021/07/20 09:48:22;;;;;;;3.80;3.50;;;;;;;;;;5066886;28;24510;-56
2021/07/20 09:50:50;;;;;;;4.60;4.20;;;;;;;;;;5067835;28;24913;-55
2021/07/20 09:53:33;;;;;;;4.50;4.20;;;;;;;;;;5068095;28;24410;-56
2021/07/20 09:56:07;;;;;;;3.90;3.60;;;;;;;;;;5084476;28;24418;-56
2021/07/20 09:58:35;;;;;;;3.90;3.60;;;;;;;;;;5087820;28;24419;-55
2021/07/20 10:01:15;;;;;;;3.90;3.60;;;;;;;;;;5088225;28;24406;-55
2021/07/20 10:03:59;;;;;;;4.38;4.05;;;;;;;;;;5087821;28;24745;-55
2021/07/20 10:06:27;;;;;;;5.07;4.10;;;;;;;;;;5085565;28;24464;-55
2021/07/20 10:08:57;;;;;;;4.00;3.70;;;;;;;;;;5088233;28;24391;-55
2021/07/20 10:11:28;;;;;;;4.00;3.70;;;;;;;;;;5088060;28;24385;-55
2021/07/20 10:14:13;;;;;;;4.40;4.00;;;;;;;;;;5086574;28;24467;-55
2021/07/20 10:17:01;;;;;;;4.60;4.22;;;;;;;;;;5087003;28;24444;-56
2021/07/20 10:19:39;;;;;;;4.40;4.00;;;;;;;;;;5086859;28;24499;-56
2021/07/20 10:22:08;;;;;;;4.63;4.22;;;;;;;;;;5087859;28;24404;-55
2021/07/20 10:24:36;;;;;;;3.88;3.60;;;;;;;;;;5083155;28;24464;-55
2021/07/20 10:27:06;;;;;;;4.20;3.80;;;;;;;;;;5100043;28;24406;-56
2021/07/20 10:29:39;;;;;;;3.60;3.30;;;;;;;;;;5100660;28;24417;-55
2021/07/20 10:32:12;;;;;;;4.60;4.20;;;;;;;;;;5101670;28;24565;-55
2021/07/20 10:34:41;;;;;;;4.70;4.30;;;;;;;;;;5083059;28;24801;-55
2021/07/20 10:37:08;;;;;;;5.10;4.60;;;;;;;;;;5064752;28;24390;-55
2021/07/20 10:39:39;;;;;;;4.68;4.35;;;;;;;;;;5075324;28;24675;-55
2021/07/20 10:42:09;;;;;;;5.07;4.68;;;;;;;;;;5097149;28;24421;-56
2021/07/20 10:44:52;;;;;;;4.63;4.22;;;;;;;;;;5099943;28;24568;-56
2021/07/20 10:47:19;;;;;;;4.97;4.32;;;;;;;;;;5084292;28;24485;-56
2021/07/20 10:49:53;;;;;;;4.90;4.50;;;;;;;;;;5084254;28;24506;-56
2021/07/20 10:52:20;;;;;;;4.40;4.10;;;;;;;;;;5084102;28;24405;-55
2021/07/20 10:54:49;;;;;;;4.18;3.88;;;;;;;;;;5084229;28;24804;-55
2021/07/20 10:57:20;;;;;;;4.70;4.30;;;;;;;;;;5068196;28;24446;-55
2021/07/20 10:59:56;;;;;;;5.38;4.88;;;;;;;;;;5071605;28;24841;-55
2021/07/20 11:02:21;;;;;;;4.70;4.30;;;;;;;;;;5080588;28;24430;-55
2021/07/20 11:04:55;;;;;;;5.70;5.20;;;;;;;;;;5078994;28;24483;-55
2021/07/20 11:07:32;;;;;;;5.13;4.72;;;;;;;;;;5081760;28;24405;-55
2021/07/20 11:10:05;;;;;;;4.60;4.20;;;;;;;;;;5084433;28;24402;-55
2021/07/20 11:12:32;;;;;;;5.47;5.00;;;;;;;;;;5081136;28;24404;-55
2021/07/20 11:14:58;;;;;;;5.97;5.47;;;;;;;;;;5063966;28;24446;-55
2021/07/20 11:17:23;;;;;;;5.40;4.90;;;;;;;;;;5086045;28;24600;-55
2021/07/20 11:19:49;;;;;;;5.57;5.07;;;;;;;;;;5093741;28;24648;-55
2021/07/20 11:22:15;;;;;;;6.40;5.20;;;;;;;;;;5092624;28;24413;-55
2021/07/20 11:24:41;;;;;;;4.83;4.53;;;;;;;;;;5092402;28;24414;-55
2021/07/20 11:27:06;;;;;;;5.10;4.70;;;;;;;;;;5094544;28;24433;-55
2021/07/20 11:29:32;;;;;;;5.20;4.80;;;;;;;;;;5092342;28;24968;-55
2021/07/20 11:32:03;;;;;;;4.73;4.33;;;;;;;;;;5094319;28;24432;-56
2021/07/20 11:34:38;;;;;;;5.30;4.90;;;;;;;;;;5095710;28;25289;-55
2021/07/20 11:37:16;;;;;;;5.80;5.20;;;;;;;;;;5095775;28;24552;-55
2021/07/20 11:39:43;;;;;;;5.70;5.30;;;;;;;;;;5094003;28;24438;-56
2021/07/20 11:42:21;;;;;;;5.90;5.40;;;;;;;;;;5097089;28;24505;-55
2021/07/20 11:44:49;;;;;;;6.28;5.68;;;;;;;;;;5096906;28;26081;-55
2021/07/20 11:47:18;;;;;;;5.72;5.22;;;;;;;;;;5096286;28;24418;-55
2021/07/20 11:49:49;;;;;;;6.18;5.30;;;;;;;;;;5094779;28;24467;-54
2021/07/20 11:52:16;;;;;;;5.18;4.78;;;;;;;;;;5098121;28;24409;-55
2021/07/20 11:54:47;;;;;;;4.90;4.50;;;;;;;;;;5095197;28;24422;-56
2021/07/20 11:57:28;;;;;;;5.20;4.80;;;;;;;;;;5103928;28;24470;-55
2021/07/20 12:00:13;;;;;;;6.00;5.50;;;;;;;;;;5090039;27;24458;-55
2021/07/20 12:02:47;;;;;;;5.50;5.00;;;;;;;;;;5106824;28;24516;-55
2021/07/20 12:05:35;;;;;;;5.60;5.20;;;;;;;;;;5088689;28;24440;-55
2021/07/20 12:08:08;;;;;;;6.22;5.63;;;;;;;;;;5098401;28;24413;-55
2021/07/20 12:10:37;;;;;;;7.07;6.40;;;;;;;;;;5081927;28;24984;-55
2021/07/20 12:13:05;;;;;;;6.65;6.05;;;;;;;;;;5078347;28;24959;-55
2021/07/20 12:15:30;;;;;;;6.23;5.70;;;;;;;;;;5079589;28;24496;-55
2021/07/20 12:17:57;;;;;;;7.50;6.80;;;;;;;;;;5085170;28;25011;-55
2021/07/20 12:20:24;;;;;;;8.00;7.30;;;;;;;;;;5078890;28;24430;-55
2021/07/20 12:22:50;;;;;;;9.50;7.70;;;;;;;;;;5074539;28;24406;-55
2021/07/20 12:25:16;;;;;;;7.00;6.50;;;;;;;;;;5085070;28;24421;-55
2021/07/20 12:27:43;;;;;;;7.80;7.10;;;;;;;;;;5095433;28;24463;-55
2021/07/20 12:30:10;;;;;;;7.55;6.85;;;;;;;;;;5092939;27;24823;-55
2021/07/20 12:32:36;;;;;;;8.27;7.47;;;;;;;;;;5082163;28;24484;-55
2021/07/20 12:35:02;;;;;;;7.00;6.40;;;;;;;;;;5090958;28;24410;-55
2021/07/20 12:37:27;;;;;;;7.40;6.80;;;;;;;;;;5098130;28;24418;-55
2021/07/20 12:39:57;;;;;;;6.47;5.87;;;;;;;;;;5098371;28;24423;-56
2021/07/20 12:42:22;;;;;;;9.20;8.40;;;;;;;;;;5087664;28;24394;-56
2021/07/20 12:45:00;;;;;;;7.43;6.83;;;;;;;;;;5088572;28;25038;-55
2021/07/20 12:47:25;;;;;;;7.38;6.78;;;;;;;;;;5092776;28;24414;-55
2021/07/20 12:49:51;;;;;;;7.20;6.60;;;;;;;;;;5100370;28;24432;-55
2021/07/20 12:52:16;;;;;;;7.00;6.30;;;;;;;;;;5096163;28;24413;-55
2021/07/20 12:54:42;;;;;;;7.80;7.00;;;;;;;;;;5090695;28;25013;-55
2021/07/20 12:57:09;;;;;;;7.43;6.80;;;;;;;;;;5085325;28;24813;-55
2021/07/20 12:59:34;;;;;;;7.43;6.93;;;;;;;;;;5083024;28;24534;-55
2021/07/20 13:02:01;;;;;;;7.73;7.03;;;;;;;;;;5101329;28;24490;-55
2021/07/20 13:04:27;;;;;;;7.93;7.22;;;;;;;;;;5099702;28;24981;-55
2021/07/20 13:06:53;;;;;;;6.77;6.27;;;;;;;;;;5088499;28;24559;-55
2021/07/20 13:09:20;;;;;;;7.10;6.50;;;;;;;;;;5086607;28;24510;-55
2021/07/20 13:11:45;;;;;;;7.70;7.10;;;;;;;;;;5068048;28;24860;-56
2021/07/20 13:14:10;;;;;;;6.90;6.40;;;;;;;;;;5068854;28;24403;-56
2021/07/20 13:16:36;;;;;;;7.60;6.90;;;;;;;;;;5071968;28;24769;-55
2021/07/20 13:19:04;;;;;;;7.68;7.07;;;;;;;;;;5088911;28;24418;-55
2021/07/20 13:21:33;;;;;;;7.78;7.07;;;;;;;;;;5087057;28;24421;-55
2021/07/20 13:23:58;;;;;;;7.93;7.22;;;;;;;;;;5088950;28;24390;-55
2021/07/20 13:26:24;;;;;;;7.70;7.00;;;;;;;;;;5072871;28;25039;-55
2021/07/20 13:28:53;;;;;;;7.80;7.10;;;;;;;;;;5064564;28;24387;-55
2021/07/20 13:31:24;;;;;;;7.40;6.80;;;;;;;;;;5073443;28;24421;-55
2021/07/20 13:33:49;;;;;;;7.13;6.43;;;;;;;;;;5088259;28;24386;-55
2021/07/20 13:36:14;;;;;;;6.43;5.93;;;;;;;;;;5088227;28;24439;-55
2021/07/20 13:38:40;;;;;;;6.90;6.30;;;;;;;;;;5088080;28;24401;-55
2021/07/20 13:41:05;;;;;;;6.50;6.00;;;;;;;;;;5068273;28;24422;-55
2021/07/20 13:43:30;;;;;;;6.60;6.10;;;;;;;;;;5068081;28;24391;-55
2021/07/20 13:45:57;;;;;;;6.47;5.97;;;;;;;;;;5067236;28;24436;-55
2021/07/20 13:48:24;;;;;;;6.35;5.75;;;;;;;;;;5067583;28;24410;-55
2021/07/20 13:50:50;;;;;;;6.40;5.95;;;;;;;;;;5086078;28;24475;-55
2021/07/20 13:53:19;;;;;;;7.90;7.20;;;;;;;;;;5088854;28;24414;-56
2021/07/20 13:55:46;;;;;;;6.47;5.97;;;;;;;;;;5083628;28;25031;-56
2021/07/20 13:58:15;;;;;;;6.22;5.82;;;;;;;;;;5094395;28;24414;-56
2021/07/20 14:00:40;;;;;;;5.60;5.20;;;;;;;;;;5081945;28;25219;-55
2021/07/20 14:03:06;;;;;;;7.00;6.40;;;;;;;;;;5096549;28;24779;-56
2021/07/20 14:05:31;;;;;;;6.50;5.90;;;;;;;;;;5095575;28;24509;-55
2021/07/20 14:07:57;;;;;;;5.63;5.23;;;;;;;;;;5091226;28;24421;-55
2021/07/20 14:10:22;;;;;;;6.07;5.57;;;;;;;;;;5090420;28;24846;-55
2021/07/20 14:12:48;;;;;;;6.03;5.53;;;;;;;;;;5094960;28;24415;-54
2021/07/20 14:15:13;;;;;;;6.27;5.77;;;;;;;;;;5078474;28;25291;-55
2021/07/20 14:17:39;;;;;;;5.73;5.23;;;;;;;;;;5100653;28;24915;-54
2021/07/20 14:20:05;;;;;;;6.50;6.00;;;;;;;;;;5083496;28;24874;-54
2021/07/20 14:22:30;;;;;;;5.50;5.07;;;;;;;;;;5092205;28;24450;-54
2021/07/20 14:24:56;;;;;;;5.85;5.35;;;;;;;;;;5094550;28;25010;-54
2021/07/20 14:27:22;;;;;;;6.20;5.60;;;;;;;;;;5096946;28;24449;-54
2021/07/20 14:29:47;;;;;;;7.00;6.40;;;;;;;;;;5087083;28;24459;-54
2021/07/20 14:32:14;;;;;;;5.77;5.20;;;;;;;;;;5090524;28;24475;-54
2021/07/20 14:34:46;;;;;;;5.70;5.30;;;;;;;;;;5092668;28;24421;-54
2021/07/20 14:37:30;;;;;;;6.10;5.60;;;;;;;;;;5088438;28;24509;-54
2021/07/20 14:39:55;;;;;;;6.00;5.50;;;;;;;;;;5088059;28;24514;-54
2021/07/20 14:42:24;;;;;;;6.40;5.90;;;;;;;;;;5092377;28;24518;-54
2021/07/20 14:44:49;;;;;;;6.25;5.75;;;;;;;;;;5076075;28;24971;-54
2021/07/20 14:47:33;;;;;;;6.10;5.60;;;;;;;;;;5071530;28;24979;-54
2021/07/20 14:49:59;;;;;;;6.00;5.50;;;;;;;;;;5073118;28;24402;-54